Time;durP1;ratioP1;P1;durP2;ratioP2;P2;SDS_P1;SDS_P2;PMS_P1;PMS_P2;Temp;Humidity;BMP_temperature;BMP_pressure;BME280_temperature;BME280_humidity;BME280_pressure;Samples;Min_cycle;Max_cycle;Signal;HPM_P1;HPM_P2
2020/12/29 00:01:33;;;;;;;3.72;2.50;;;5.30;77.60;;;;;;5032237;28;20060;-87
2020/12/29 00:03:59;;;;;;;3.87;2.63;;;5.20;77.50;;;;;;5032838;28;20075;-88
2020/12/29 00:06:25;;;;;;;3.67;2.60;;;5.20;77.60;;;;;;5016361;28;20037;-87
2020/12/29 00:08:51;;;;;;;3.33;2.63;;;5.20;77.60;;;;;;5032354;28;20067;-87
2020/12/29 00:11:16;;;;;;;2.97;2.47;;;5.20;77.70;;;;;;5015657;28;20479;-87
2020/12/29 00:13:42;;;;;;;3.58;2.60;;;5.20;77.70;;;;;;4999228;28;20029;-87
2020/12/29 00:16:08;;;;;;;4.10;3.10;;;5.10;77.70;;;;;;5032220;28;20040;-87
2020/12/29 00:18:35;;;;;;;4.47;2.83;;;5.10;77.80;;;;;;5031894;28;20082;-87
2020/12/29 00:21:01;;;;;;;5.25;2.88;;;5.10;78.40;;;;;;5033775;28;20037;-87
2020/12/29 00:23:27;;;;;;;4.95;2.95;;;5.00;77.80;;;;;;5032131;28;20022;-87
2020/12/29 00:25:53;;;;;;;5.38;3.25;;;5.00;77.80;;;;;;5031587;28;20032;-87
2020/12/29 00:28:19;;;;;;;4.55;3.05;;;5.00;77.90;;;;;;5016011;28;20036;-87
2020/12/29 00:30:44;;;;;;;4.07;2.72;;;5.00;77.90;;;;;;5033237;28;20037;-87
2020/12/29 00:33:10;;;;;;;4.60;2.97;;;4.90;77.90;;;;;;5012196;28;20034;-87
2020/12/29 00:35:35;;;;;;;5.85;3.00;;;4.90;78.00;;;;;;5028795;28;20033;-87
2020/12/29 00:38:01;;;;;;;3.88;3.00;;;4.90;78.00;;;;;;5044041;28;20086;-87
2020/12/29 00:40:27;;;;;;;3.75;2.65;;;4.90;78.10;;;;;;5015414;28;20022;-87
2020/12/29 00:42:52;;;;;;;4.88;3.05;;;4.90;78.10;;;;;;5014274;28;20037;-86
2020/12/29 00:45:18;;;;;;;4.95;3.00;;;4.90;78.20;;;;;;5015705;28;20048;-87
2020/12/29 00:47:44;;;;;;;3.78;2.65;;;4.80;78.20;;;;;;5031908;28;20087;-87
2020/12/29 00:50:09;;;;;;;5.05;3.20;;;4.80;78.20;;;;;;5015869;28;20095;-87
2020/12/29 00:52:35;;;;;;;3.53;2.42;;;4.80;78.20;;;;;;5015118;28;20034;-87
2020/12/29 00:55:00;;;;;;;3.95;2.88;;;4.80;78.20;;;;;;5015505;28;20032;-87
2020/12/29 00:57:26;;;;;;;3.42;2.58;;;4.80;78.30;;;;;;5015696;28;20362;-87
2020/12/29 00:59:52;;;;;;;4.05;2.75;;;4.80;78.30;;;;;;5031718;28;20036;-87
2020/12/29 01:02:17;;;;;;;4.55;2.85;;;4.70;78.20;;;;;;5015382;28;20566;-88
2020/12/29 01:04:43;;;;;;;4.10;2.90;;;4.70;78.20;;;;;;5032765;28;20025;-88
2020/12/29 01:07:08;;;;;;;4.25;2.63;;;4.70;78.30;;;;;;5015456;28;20061;-88
2020/12/29 01:09:34;;;;;;;3.88;2.63;;;4.70;78.40;;;;;;5015000;28;20061;-88
2020/12/29 01:12:00;;;;;;;4.85;2.47;;;4.70;78.40;;;;;;5031990;28;20156;-88
2020/12/29 01:14:25;;;;;;;4.25;3.13;;;4.70;78.40;;;;;;4999192;28;20028;-87
2020/12/29 01:16:51;;;;;;;4.40;2.78;;;4.70;78.40;;;;;;5031263;28;20025;-87
2020/12/29 01:19:17;;;;;;;4.47;2.80;;;4.70;78.50;;;;;;5015430;28;20032;-87
2020/12/29 01:21:42;;;;;;;4.18;2.80;;;4.70;78.50;;;;;;5031646;28;20109;-87
2020/12/29 01:24:08;;;;;;;3.88;2.55;;;4.70;79.10;;;;;;5015416;28;20037;-87
2020/12/29 01:26:34;;;;;;;3.50;2.80;;;4.60;78.40;;;;;;5015041;28;20079;-88
2020/12/29 01:28:59;;;;;;;4.88;2.70;;;4.60;78.40;;;;;;5032794;28;20038;-88
2020/12/29 01:31:30;;;;;;;5.30;3.13;;;4.60;78.50;;;;;;5015357;28;20033;-87
2020/12/29 01:33:57;;;;;;;5.05;2.90;;;4.60;78.50;;;;;;4999161;28;20033;-87
2020/12/29 01:36:23;;;;;;;4.63;2.78;;;4.60;78.50;;;;;;5015286;28;20032;-87
2020/12/29 01:38:49;;;;;;;4.53;2.90;;;4.60;78.50;;;;;;5031505;28;20422;-87
2020/12/29 01:41:14;;;;;;;5.88;2.90;;;4.60;79.10;;;;;;5031653;28;20076;-87
2020/12/29 01:43:40;;;;;;;4.45;3.08;;;4.60;78.50;;;;;;5032355;28;20041;-87
2020/12/29 01:46:06;;;;;;;4.07;3.10;;;4.60;78.50;;;;;;5017959;28;20033;-87
2020/12/29 01:48:31;;;;;;;6.15;3.08;;;4.60;78.50;;;;;;5002581;28;20056;-87
2020/12/29 01:50:57;;;;;;;4.68;3.13;;;4.50;78.40;;;;;;5002266;28;20033;-87
2020/12/29 01:53:23;;;;;;;3.35;2.45;;;4.50;78.40;;;;;;5018836;28;20034;-87
2020/12/29 01:55:52;;;;;;;5.28;3.15;;;4.50;78.40;;;;;;5001996;28;20064;-87
2020/12/29 01:58:17;;;;;;;;;;;4.50;78.40;;;;;;5035500;28;20049;-87
2020/12/29 02:00:45;;;;;;;4.32;2.60;;;4.50;78.40;;;;;;5035849;28;20007;-88
2020/12/29 02:03:15;;;;;;;4.53;2.83;;;4.40;78.30;;;;;;5035073;28;20021;-87
2020/12/29 02:05:45;;;;;;;4.15;3.13;;;4.40;78.20;;;;;;5018330;28;20037;-87
2020/12/29 02:08:12;;;;;;;4.93;3.13;;;4.40;78.30;;;;;;5034872;28;20132;-87
2020/12/29 02:10:38;;;;;;;5.85;3.00;;;4.40;78.20;;;;;;5018066;28;20045;-87
2020/12/29 02:13:04;;;;;;;4.32;2.97;;;4.40;78.30;;;;;;5034640;28;20034;-87
2020/12/29 02:15:30;;;;;;;5.28;3.00;;;4.30;78.20;;;;;;5034886;28;20032;-88
2020/12/29 02:17:55;;;;;;;5.05;3.50;;;4.40;78.30;;;;;;5034329;28;20453;-87
2020/12/29 02:20:21;;;;;;;3.75;3.00;;;4.30;78.20;;;;;;5018277;28;20097;-87
2020/12/29 02:22:46;;;;;;;5.03;3.05;;;4.30;78.30;;;;;;5034734;28;20029;-87
2020/12/29 02:25:12;;;;;;;5.88;3.28;;;4.30;78.20;;;;;;5034918;28;20034;-87
2020/12/29 02:27:49;;;;;;;5.43;3.20;;;4.30;78.20;;;;;;5034726;28;20071;-87
2020/12/29 02:30:18;;;;;;;4.10;3.10;;;4.30;78.30;;;;;;5034762;28;20036;-88
2020/12/29 02:32:44;;;;;;;5.40;3.20;;;4.30;78.90;;;;;;5034240;28;20075;-87
2020/12/29 02:35:16;;;;;;;4.55;3.28;;;4.30;78.40;;;;;;5034507;28;20116;-87
2020/12/29 02:37:42;;;;;;;4.93;3.05;;;4.30;78.40;;;;;;5034233;28;20025;-87
2020/12/29 02:40:08;;;;;;;5.22;3.33;;;4.20;78.40;;;;;;5017769;28;20384;-87
2020/12/29 02:42:33;;;;;;;5.30;3.28;;;4.20;78.40;;;;;;5017869;28;20041;-88
2020/12/29 02:44:59;;;;;;;3.97;2.97;;;4.20;78.40;;;;;;5034207;28;20029;-88
2020/12/29 02:47:25;;;;;;;7.38;3.35;;;4.20;78.40;;;;;;5017986;28;20033;-87
2020/12/29 02:49:50;;;;;;;4.97;3.33;;;4.20;78.30;;;;;;5034003;28;20045;-87
2020/12/29 02:52:17;;;;;;;3.75;2.83;;;4.20;78.40;;;;;;5001406;28;20029;-88
2020/12/29 02:54:42;;;;;;;4.68;3.10;;;4.20;78.40;;;;;;5017688;28;20030;-87
2020/12/29 02:57:08;;;;;;;4.05;2.72;;;4.20;78.40;;;;;;5017477;28;20022;-88
2020/12/29 02:59:34;;;;;;;5.90;3.50;;;4.20;78.40;;;;;;5001458;28;20121;-88
2020/12/29 03:01:59;;;;;;;5.82;2.85;;;4.20;78.40;;;;;;5000834;28;20021;-87
2020/12/29 03:04:25;;;;;;;5.03;2.80;;;4.10;78.40;;;;;;5017688;28;20021;-88
2020/12/29 03:06:51;;;;;;;4.07;2.92;;;4.10;78.30;;;;;;5033677;28;20116;-87
2020/12/29 03:09:17;;;;;;;4.03;2.67;;;4.10;78.30;;;;;;5001058;28;20046;-88
2020/12/29 03:11:44;;;;;;;5.20;3.03;;;4.10;78.40;;;;;;5033700;28;20033;-88
2020/12/29 03:14:10;;;;;;;3.30;2.50;;;4.10;78.40;;;;;;5017428;28;20056;-88
2020/12/29 03:16:36;;;;;;;4.55;2.97;;;4.10;78.30;;;;;;5033869;28;20025;-88
2020/12/29 03:19:03;;;;;;;3.83;2.65;;;4.10;78.40;;;;;;5033650;28;20146;-88
2020/12/29 03:21:29;;;;;;;5.45;3.50;;;4.10;78.40;;;;;;5017192;28;20505;-88
2020/12/29 03:23:55;;;;;;;4.15;2.95;;;4.10;78.40;;;;;;5034181;28;20032;-87
2020/12/29 03:26:21;;;;;;;4.15;3.10;;;4.10;78.40;;;;;;5000892;28;20033;-87
2020/12/29 03:28:47;;;;;;;4.47;2.65;;;4.10;78.40;;;;;;5016970;28;20029;-88
2020/12/29 03:31:13;;;;;;;4.07;2.80;;;4.00;78.20;;;;;;5033596;28;20095;-87
2020/12/29 03:33:39;;;;;;;5.18;3.10;;;4.00;78.20;;;;;;5033093;28;20032;-87
2020/12/29 03:36:05;;;;;;;4.97;2.80;;;4.00;78.20;;;;;;5016960;28;20068;-87
2020/12/29 03:38:31;;;;;;;4.30;3.00;;;4.00;78.20;;;;;;5033299;28;20037;-88
2020/12/29 03:40:57;;;;;;;3.47;2.50;;;4.00;78.20;;;;;;5034128;28;20026;-88
2020/12/29 03:43:23;;;;;;;4.47;2.78;;;3.90;78.00;;;;;;5016804;28;20103;-88
2020/12/29 03:45:50;;;;;;;4.90;3.10;;;3.90;78.00;;;;;;5000101;28;20478;-88
2020/12/29 03:48:18;;;;;;;3.58;2.50;;;3.90;78.00;;;;;;5033403;28;20160;-88
2020/12/29 03:50:44;;;;;;;3.33;2.63;;;3.90;77.90;;;;;;5033214;28;20029;-88
2020/12/29 03:53:10;;;;;;;4.80;2.80;;;3.90;77.90;;;;;;5032970;28;20616;-87
2020/12/29 03:55:36;;;;;;;4.28;2.75;;;3.90;77.90;;;;;;5033337;28;20030;-88
2020/12/29 03:58:05;;;;;;;4.32;2.67;;;3.80;77.80;;;;;;5032768;28;20029;-87
2020/12/29 04:00:31;;;;;;;4.07;2.55;;;3.90;77.80;;;;;;5016804;28;20021;-88
2020/12/29 04:02:57;;;;;;;3.83;2.80;;;3.80;77.80;;;;;;5032806;28;20028;-88
2020/12/29 04:05:23;;;;;;;4.72;3.00;;;3.80;77.80;;;;;;5016792;28;20033;-88
2020/12/29 04:10:20;;;;;;;3.65;2.45;;;3.80;77.70;;;;;;5110718;28;20048;-88
2020/12/29 04:12:46;;;;;;;6.10;3.08;;;3.80;77.70;;;;;;5078845;28;20028;-88
2020/12/29 04:15:11;;;;;;;4.82;3.05;;;3.70;77.60;;;;;;5096194;28;20050;-88
2020/12/29 04:17:42;;;;;;;3.60;2.83;;;3.70;77.70;;;;;;5096185;28;20511;-88
2020/12/29 04:20:09;;;;;;;4.13;2.67;;;3.70;77.60;;;;;;5079569;28;20024;-88
2020/12/29 04:22:36;;;;;;;3.58;2.75;;;3.70;77.60;;;;;;5096540;28;20035;-88
2020/12/29 04:25:04;;;;;;;5.05;2.95;;;3.70;77.60;;;;;;5078970;28;20024;-88
2020/12/29 04:27:29;;;;;;;5.30;3.25;;;3.70;77.60;;;;;;5114137;28;20023;-88
2020/12/29 04:29:55;;;;;;;4.07;3.05;;;3.60;77.60;;;;;;5113938;28;20028;-89
2020/12/29 04:32:21;;;;;;;5.35;2.58;;;3.60;77.50;;;;;;5079209;28;20495;-88
2020/12/29 04:34:47;;;;;;;3.33;2.40;;;3.60;77.60;;;;;;5095802;28;20032;-88
2020/12/29 04:37:14;;;;;;;3.20;2.30;;;3.60;77.50;;;;;;5114397;28;20019;-88
2020/12/29 04:39:40;;;;;;;3.92;2.95;;;3.60;77.60;;;;;;5079370;28;20099;-88
2020/12/29 04:42:11;;;;;;;3.50;2.70;;;3.60;77.60;;;;;;5095646;28;20123;-88
2020/12/29 04:44:39;;;;;;;4.25;2.72;;;3.60;77.60;;;;;;5114093;28;20023;-88
2020/12/29 04:47:07;;;;;;;4.78;2.70;;;3.60;78.20;;;;;;5095555;28;20068;-88
2020/12/29 04:49:33;;;;;;;4.88;2.92;;;3.50;77.40;;;;;;5095914;28;20411;-88
2020/12/29 04:52:04;;;;;;;3.85;2.70;;;3.50;77.40;;;;;;5078769;28;20020;-88
2020/12/29 04:54:35;;;;;;;3.67;2.63;;;3.50;77.40;;;;;;5095807;28;20024;-88
2020/12/29 04:57:02;;;;;;;3.90;2.72;;;3.50;77.40;;;;;;5095576;28;20035;-88
2020/12/29 04:59:29;;;;;;;4.57;2.60;;;3.50;77.40;;;;;;5062342;28;20422;-89
2020/12/29 05:01:55;;;;;;;4.25;2.80;;;3.50;77.30;;;;;;5078446;28;20057;-88
2020/12/29 05:04:25;;;;;;;3.55;2.58;;;3.50;77.40;;;;;;5113517;28;20417;-88
2020/12/29 05:06:52;;;;;;;4.97;2.80;;;3.40;77.30;;;;;;5078845;28;20045;-88
2020/12/29 05:09:22;;;;;;;4.65;2.85;;;3.40;77.30;;;;;;5078440;28;20048;-88
2020/12/29 05:11:48;;;;;;;3.65;2.70;;;3.40;77.30;;;;;;5095210;28;20526;-87
2020/12/29 05:14:14;;;;;;;4.47;2.63;;;3.40;77.30;;;;;;5095319;28;20024;-88
2020/12/29 05:16:40;;;;;;;4.05;2.60;;;3.40;77.30;;;;;;5095761;28;20088;-88
2020/12/29 05:19:08;;;;;;;4.25;2.67;;;3.30;77.20;;;;;;5096660;28;20049;-88
2020/12/29 05:21:38;;;;;;;3.17;2.47;;;3.30;77.30;;;;;;5099805;28;20457;-88
2020/12/29 05:24:14;;;;;;;3.83;3.10;;;3.30;77.30;;;;;;5099038;28;20028;-88
2020/12/29 05:26:43;;;;;;;4.75;3.00;;;3.30;77.30;;;;;;5099593;28;20032;-89
2020/12/29 05:29:13;;;;;;;3.70;2.72;;;3.30;77.40;;;;;;5099544;28;20448;-89
2020/12/29 05:31:44;;;;;;;5.95;3.05;;;3.30;77.40;;;;;;5098334;28;20185;-88
2020/12/29 05:34:25;;;;;;;4.93;2.90;;;3.30;78.00;;;;;;5099096;28;20784;-88
2020/12/29 05:36:52;;;;;;;4.28;2.95;;;3.20;77.40;;;;;;5097979;28;20115;-88
2020/12/29 05:39:20;;;;;;;4.65;2.75;;;3.20;77.40;;;;;;5082832;28;20069;-88
2020/12/29 05:41:51;;;;;;;4.43;2.72;;;3.20;77.40;;;;;;5116299;28;20094;-88
2020/12/29 05:44:38;;;;;;;5.28;2.85;;;3.20;77.40;;;;;;5098394;28;20073;-88
2020/12/29 05:47:04;;;;;;;4.65;2.90;;;3.20;77.30;;;;;;5081066;28;20055;-88
2020/12/29 05:49:33;;;;;;;4.25;3.05;;;3.20;77.30;;;;;;5098300;28;20042;-88
2020/12/29 05:51:59;;;;;;;4.28;3.22;;;3.20;77.30;;;;;;5116812;28;20023;-88
2020/12/29 05:54:26;;;;;;;4.95;3.58;;;3.10;77.20;;;;;;5099080;28;20030;-89
2020/12/29 05:56:53;;;;;;;4.65;3.17;;;3.10;77.10;;;;;;5101275;28;20122;-89
2020/12/29 05:59:19;;;;;;;5.65;3.35;;;3.10;77.10;;;;;;5082436;28;20469;-89
2020/12/29 06:01:52;;;;;;;6.55;4.05;;;3.10;77.10;;;;;;5078038;28;20036;-88
2020/12/29 06:04:19;;;;;;;6.25;3.80;;;3.10;77.10;;;;;;5014194;28;20049;-88
2020/12/29 06:06:46;;;;;;;7.97;3.35;;;3.10;77.10;;;;;;5022473;28;20128;-88
2020/12/29 06:09:14;;;;;;;5.22;3.60;;;3.10;77.10;;;;;;5013571;28;20050;-89
2020/12/29 06:11:51;;;;;;;7.13;3.47;;;3.00;77.00;;;;;;4998378;28;20026;-89
2020/12/29 06:14:25;;;;;;;5.20;3.35;;;3.00;77.00;;;;;;5008013;28;20061;-89
2020/12/29 06:16:55;;;;;;;4.85;3.40;;;3.00;77.00;;;;;;4997651;28;20114;-86
2020/12/29 06:19:29;;;;;;;5.57;3.50;;;3.00;77.00;;;;;;5013275;28;20065;-86
2020/12/29 06:22:10;;;;;;;6.32;3.70;;;3.00;77.10;;;;;;5013329;28;20030;-86
2020/12/29 06:24:38;;;;;;;5.53;3.70;;;3.00;77.10;;;;;;5014213;28;20156;-86
2020/12/29 06:27:05;;;;;;;5.22;3.53;;;2.90;77.10;;;;;;5013829;28;20025;-87
2020/12/29 06:29:39;;;;;;;5.70;3.92;;;2.90;77.10;;;;;;4997719;28;20088;-89
2020/12/29 06:32:13;;;;;;;5.05;3.80;;;2.90;77.20;;;;;;4997377;28;20061;-90
2020/12/29 06:34:41;;;;;;;5.07;3.47;;;2.90;77.20;;;;;;5028771;28;20047;-89
2020/12/29 06:37:19;;;;;;;6.07;3.92;;;2.90;77.20;;;;;;5077258;28;20105;-89
2020/12/29 06:39:52;;;;;;;6.20;4.15;;;2.90;77.30;;;;;;5093942;28;20036;-88
2020/12/29 06:42:18;;;;;;;7.55;3.90;;;2.90;77.30;;;;;;5093127;28;20342;-89
2020/12/29 06:44:44;;;;;;;5.88;3.95;;;2.90;77.40;;;;;;5076629;28;20390;-90
2020/12/29 06:47:12;;;;;;;5.75;4.32;;;2.90;77.40;;;;;;5094150;28;20111;-90
2020/12/29 06:49:44;;;;;;;6.65;3.95;;;2.90;77.40;;;;;;5077648;28;20431;-90
2020/12/29 06:52:18;;;;;;;5.03;4.07;;;2.90;77.40;;;;;;5094466;28;20024;-90
2020/12/29 06:54:47;;;;;;;6.53;4.00;;;2.90;77.50;;;;;;5095647;28;20016;-90
2020/12/29 06:57:13;;;;;;;5.40;3.95;;;2.90;77.50;;;;;;5077665;28;20465;-90
2020/12/29 06:59:40;;;;;;;5.57;4.00;;;2.90;77.50;;;;;;5078043;28;20054;-90
2020/12/29 07:02:23;;;;;;;6.63;3.90;;;2.90;77.60;;;;;;5095594;28;20480;-90
2020/12/29 07:04:53;;;;;;;6.32;4.07;;;2.90;77.60;;;;;;5095737;28;20085;-89
2020/12/29 07:07:32;;;;;;;6.30;3.97;;;2.90;77.60;;;;;;5094709;28;20437;-90
2020/12/29 07:10:14;;;;;;;6.82;4.05;;;2.90;77.60;;;;;;5094404;28;20043;-90
2020/12/29 07:12:50;;;;;;;5.10;3.95;;;2.80;78.10;;;;;;5094529;28;20027;-90
2020/12/29 07:15:23;;;;;;;8.13;4.28;;;2.80;77.50;;;;;;5093955;28;20500;-88
2020/12/29 07:17:57;;;;;;;6.38;4.70;;;2.80;77.50;;;;;;5093606;28;20093;-88
2020/12/29 07:20:24;;;;;;;6.50;4.22;;;2.80;77.60;;;;;;5073818;28;20025;-88
2020/12/29 07:22:55;;;;;;;5.53;3.67;;;2.80;77.70;;;;;;5091745;28;20140;-88
2020/12/29 07:25:26;;;;;;;7.15;4.03;;;2.80;77.70;;;;;;5059753;28;20036;-89
2020/12/29 07:27:59;;;;;;;6.03;3.80;;;2.80;77.70;;;;;;5076895;28;20043;-88
2020/12/29 07:30:24;;;;;;;6.05;4.00;;;2.80;77.80;;;;;;5076604;28;20036;-89
2020/12/29 07:32:50;;;;;;;6.82;4.30;;;2.80;77.70;;;;;;5076578;28;20430;-89
2020/12/29 07:35:18;;;;;;;6.22;3.95;;;2.80;77.80;;;;;;5093415;28;20490;-89
2020/12/29 07:37:49;;;;;;;5.50;3.97;;;2.80;77.80;;;;;;5094171;28;20024;-89
2020/12/29 07:40:14;;;;;;;5.82;4.18;;;2.80;77.80;;;;;;5094255;28;20020;-89
2020/12/29 07:42:40;;;;;;;6.63;4.45;;;2.80;77.90;;;;;;5093404;28;20031;-90
2020/12/29 07:45:06;;;;;;;5.63;4.05;;;2.80;78.00;;;;;;5077666;28;20089;-89
2020/12/29 07:47:35;;;;;;;7.53;4.90;;;2.80;78.00;;;;;;5077456;28;20027;-89
2020/12/29 07:50:01;;;;;;;6.22;4.22;;;2.80;78.10;;;;;;5077558;28;20029;-90
2020/12/29 07:52:27;;;;;;;5.88;4.50;;;2.80;78.10;;;;;;5077430;28;20123;-90
2020/12/29 07:55:12;;;;;;;7.07;4.68;;;2.90;78.20;;;;;;5094381;28;20066;-90
2020/12/29 07:57:39;;;;;;;7.13;4.90;;;2.90;78.10;;;;;;5094620;28;20035;-90
2020/12/29 08:00:25;;;;;;;7.28;4.70;;;2.90;78.10;;;;;;5077078;28;20078;-89
2020/12/29 08:02:52;;;;;;;6.13;4.35;;;2.90;78.20;;;;;;5075559;28;20068;-87
2020/12/29 08:05:25;;;;;;;7.47;5.05;;;2.90;78.20;;;;;;5090306;28;20036;-88
2020/12/29 08:08:03;;;;;;;7.07;4.95;;;2.90;78.30;;;;;;5069048;28;20082;-87
2020/12/29 08:10:32;;;;;;;7.75;5.15;;;2.90;78.40;;;;;;5092506;28;20044;-88
2020/12/29 08:12:59;;;;;;;7.75;5.25;;;2.90;78.40;;;;;;5093152;28;20028;-88
2020/12/29 08:15:32;;;;;;;6.15;4.43;;;2.90;78.40;;;;;;5093920;28;20034;-87
2020/12/29 08:18:13;;;;;;;8.50;5.07;;;2.90;78.40;;;;;;5093726;28;20012;-90
2020/12/29 08:20:50;;;;;;;8.70;5.43;;;3.00;78.30;;;;;;5078327;28;20032;-90
2020/12/29 08:23:20;;;;;;;9.40;6.38;;;2.90;78.50;;;;;;5093856;28;20028;-90
2020/12/29 08:25:54;;;;;;;9.70;6.15;;;3.00;78.50;;;;;;5093142;28;20433;-89
2020/12/29 08:28:22;;;;;;;8.07;6.15;;;2.90;78.60;;;;;;5093455;28;20021;-89
2020/12/29 08:30:48;;;;;;;8.00;5.70;;;3.00;78.60;;;;;;5076814;28;20028;-91
2020/12/29 08:33:15;;;;;;;9.20;6.07;;;3.00;78.60;;;;;;5083135;28;20024;-88
2020/12/29 08:36:03;;;;;;;8.88;6.03;;;3.00;78.60;;;;;;5057913;28;20072;-88
2020/12/29 08:38:41;;;;;;;9.60;6.30;;;3.00;78.70;;;;;;5092514;28;20115;-89
2020/12/29 08:41:12;;;;;;;10.10;6.70;;;3.00;78.90;;;;;;5093455;28;20023;-89
2020/12/29 08:43:51;;;;;;;9.00;5.95;;;3.00;78.80;;;;;;5093422;28;20111;-89
2020/12/29 08:46:19;;;;;;;8.55;5.68;;;3.00;78.80;;;;;;5059256;28;20420;-89
2020/12/29 08:48:58;;;;;;;8.40;6.07;;;3.00;78.80;;;;;;5056856;28;20028;-89
2020/12/29 08:51:26;;;;;;;9.15;6.20;;;3.10;78.80;;;;;;5073210;28;20028;-89
2020/12/29 08:54:09;;;;;;;11.55;7.20;;;3.00;78.80;;;;;;5056911;28;20032;-89
2020/12/29 08:56:35;;;;;;;8.48;6.70;;;3.10;79.10;;;;;;5073780;28;20119;-89
2020/12/29 08:59:14;;;;;;;12.48;7.50;;;3.10;79.20;;;;;;5057178;28;20056;-89
2020/12/29 09:01:45;;;;;;;13.48;7.85;;;3.10;79.40;;;;;;5064655;28;20052;-89
2020/12/29 09:04:37;;;;;;;12.25;7.57;;;3.10;79.40;;;;;;5073479;28;20053;-89
2020/12/29 09:07:10;;;;;;;10.45;7.20;;;3.10;79.40;;;;;;5079743;28;20070;-91
2020/12/29 09:09:37;;;;;;;11.50;6.70;;;3.10;79.40;;;;;;5058294;28;20052;-91
2020/12/29 09:12:12;;;;;;;11.27;7.13;;;3.20;79.40;;;;;;5055860;28;20032;-89
2020/12/29 09:14:55;;;;;;;10.18;7.03;;;3.20;79.40;;;;;;5073120;28;20035;-90
2020/12/29 09:17:22;;;;;;;10.70;7.18;;;3.20;79.40;;;;;;5056387;28;20033;-88
2020/12/29 09:20:07;;;;;;;12.05;7.20;;;3.20;79.40;;;;;;5072947;28;20116;-89
2020/12/29 09:22:33;;;;;;;11.65;7.93;;;3.20;79.50;;;;;;5075852;28;20107;-90
2020/12/29 09:24:58;;;;;;;11.35;8.27;;;3.20;79.50;;;;;;5063281;28;20060;-90
2020/12/29 09:27:28;;;;;;;12.73;8.88;;;3.30;79.60;;;;;;5079715;28;20526;-90
2020/12/29 09:29:54;;;;;;;13.20;8.65;;;3.30;79.80;;;;;;5076938;28;20028;-90
2020/12/29 09:32:20;;;;;;;18.20;10.63;;;3.30;79.80;;;;;;5081871;28;20020;-90
2020/12/29 09:34:46;;;;;;;15.80;9.20;;;3.30;80.10;;;;;;5072034;28;20123;-90
2020/12/29 09:37:12;;;;;;;17.33;11.52;;;3.30;80.20;;;;;;5056148;28;20024;-90
2020/12/29 09:39:37;;;;;;;15.35;9.80;;;3.30;80.60;;;;;;5075744;28;20179;-90
2020/12/29 09:42:06;;;;;;;18.52;10.45;;;3.40;80.70;;;;;;5075654;28;20077;-89
2020/12/29 09:44:32;;;;;;;16.13;10.30;;;3.40;80.70;;;;;;5075638;28;20028;-89
2020/12/29 09:46:57;;;;;;;14.23;9.80;;;3.40;80.80;;;;;;5075694;28;20046;-89
2020/12/29 09:49:23;;;;;;;16.90;10.70;;;3.40;80.60;;;;;;5075773;28;20119;-91
2020/12/29 09:51:53;;;;;;;18.90;11.45;;;3.50;80.70;;;;;;5092080;28;20020;-89
2020/12/29 09:54:18;;;;;;;18.65;11.43;;;3.50;80.80;;;;;;5092267;28;20104;-90
2020/12/29 09:56:44;;;;;;;21.52;11.55;;;3.50;80.80;;;;;;5069972;28;20493;-89
2020/12/29 09:59:10;;;;;;;21.83;13.38;;;3.50;80.70;;;;;;5075551;28;20020;-91
2020/12/29 10:01:35;;;;;;;18.98;12.57;;;3.50;80.80;;;;;;5075492;28;20052;-89
2020/12/29 10:04:01;;;;;;;24.92;15.52;;;3.50;80.80;;;;;;5075854;28;20032;-89
2020/12/29 10:06:27;;;;;;;28.25;16.48;;;3.60;81.10;;;;;;5076675;28;20032;-89
2020/12/29 10:08:52;;;;;;;25.95;15.32;;;3.60;81.50;;;;;;5075683;23;20048;-86
2020/12/29 10:11:18;;;;;;;26.52;16.17;;;3.60;81.50;;;;;;5075869;28;20032;-87
2020/12/29 10:13:43;;;;;;;24.30;16.52;;;3.60;81.60;;;;;;5092052;28;20070;-87
2020/12/29 10:16:09;;;;;;;30.40;17.65;;;3.60;81.50;;;;;;5075331;28;20024;-87
2020/12/29 10:18:35;;;;;;;33.15;18.10;;;3.70;81.70;;;;;;5060627;28;20056;-87
2020/12/29 10:21:00;;;;;;;31.55;19.10;;;3.70;81.90;;;;;;5055175;28;20481;-87
2020/12/29 10:23:26;;;;;;;29.63;17.92;;;3.70;82.00;;;;;;5073778;28;20497;-87
2020/12/29 10:25:52;;;;;;;27.10;16.67;;;3.70;81.90;;;;;;5073671;28;20047;-86
2020/12/29 10:28:19;;;;;;;36.05;20.00;;;3.80;81.90;;;;;;5073546;28;20039;-87
2020/12/29 10:30:47;;;;;;;29.45;18.58;;;3.80;82.10;;;;;;5073798;28;20040;-87
2020/12/29 10:33:12;;;;;;;33.10;19.55;;;3.80;82.20;;;;;;5073309;28;20120;-86
2020/12/29 10:35:40;;;;;;;34.25;20.33;;;3.80;82.10;;;;;;5073313;28;20481;-86
2020/12/29 10:38:06;;;;;;;37.40;23.70;;;3.90;82.80;;;;;;5090081;28;20028;-87
2020/12/29 10:40:31;;;;;;;33.45;21.15;;;3.90;82.40;;;;;;5073323;28;20028;-86
2020/12/29 10:42:57;;;;;;;33.40;20.83;;;3.90;82.70;;;;;;5073132;28;20039;-86
2020/12/29 10:45:23;;;;;;;31.95;20.45;;;3.90;82.70;;;;;;5073302;28;20068;-87
2020/12/29 10:47:48;;;;;;;38.97;23.00;;;4.00;82.80;;;;;;5075991;28;20027;-87
2020/12/29 10:50:14;;;;;;;34.22;21.77;;;4.00;83.10;;;;;;5053209;28;20028;-87
2020/12/29 10:52:39;;;;;;;43.75;25.70;;;4.00;83.20;;;;;;5039696;28;20474;-87
2020/12/29 10:55:05;;;;;;;49.40;29.67;;;4.00;83.40;;;;;;5055915;28;20478;-87
2020/12/29 10:57:32;;;;;;;57.97;34.13;;;4.10;83.80;;;;;;5044406;28;20036;-86
2020/12/29 10:59:58;;;;;;;53.22;30.38;;;4.10;83.90;;;;;;5063852;28;20474;-86
2020/12/29 11:02:24;;;;;;;64.38;33.30;;;4.10;83.80;;;;;;5083141;28;20030;-86
2020/12/29 11:04:49;;;;;;;73.68;38.63;;;4.10;84.20;;;;;;5076532;28;20032;-85
2020/12/29 11:07:15;;;;;;;74.95;37.85;;;4.10;84.60;;;;;;5055195;28;20470;-86
2020/12/29 11:09:41;;;;;;;74.75;37.80;;;4.20;84.60;;;;;;5078121;28;20131;-86
2020/12/29 11:12:06;;;;;;;54.83;30.92;;;4.20;85.30;;;;;;5073121;28;20494;-86
2020/12/29 11:14:32;;;;;;;47.08;27.92;;;4.30;84.60;;;;;;5073394;28;20077;-86
2020/12/29 11:16:58;;;;;;;41.50;25.92;;;4.30;84.60;;;;;;5072759;28;20033;-86
2020/12/29 11:19:24;;;;;;;39.40;24.35;;;4.30;84.60;;;;;;5057059;28;20021;-86
2020/12/29 11:21:49;;;;;;;39.72;23.38;;;4.40;84.40;;;;;;5083038;28;20031;-86
2020/12/29 11:24:16;;;;;;;34.92;22.50;;;4.40;84.20;;;;;;5076090;28;20024;-85
2020/12/29 11:26:42;;;;;;;34.65;21.02;;;4.40;84.10;;;;;;5073780;28;20024;-86
2020/12/29 11:29:07;;;;;;;54.63;30.05;;;4.50;84.00;;;;;;5066317;28;20206;-85
2020/12/29 11:31:33;;;;;;;46.97;26.25;;;4.50;84.20;;;;;;5087929;28;20024;-86
2020/12/29 11:33:59;;;;;;;48.45;26.58;;;4.50;84.30;;;;;;5072725;28;20040;-85
2020/12/29 11:36:24;;;;;;;67.00;34.55;;;4.60;84.40;;;;;;5060736;28;20032;-85
2020/12/29 11:38:50;;;;;;;86.57;41.28;;;4.60;84.30;;;;;;5056331;28;20027;-85
2020/12/29 11:41:16;;;;;;;96.00;45.58;;;4.60;84.20;;;;;;5077102;28;20035;-85
2020/12/29 11:43:42;;;;;;;110.03;45.92;;;4.70;84.10;;;;;;5058000;28;20036;-85
2020/12/29 11:46:08;;;;;;;136.15;56.13;;;4.70;84.20;;;;;;5073539;28;20486;-85
2020/12/29 11:48:35;;;;;;;111.35;47.38;;;4.70;84.10;;;;;;5072532;28;20040;-85
2020/12/29 11:51:01;;;;;;;162.85;66.47;;;4.70;84.10;;;;;;5073974;28;20032;-85
2020/12/29 11:53:27;;;;;;;136.57;55.35;;;4.70;84.20;;;;;;5070345;28;20040;-85
2020/12/29 11:55:53;;;;;;;121.25;52.38;;;4.80;84.50;;;;;;5089295;28;20099;-86
2020/12/29 11:58:18;;;;;;;140.40;55.38;;;4.80;84.40;;;;;;5071376;28;20039;-85
2020/12/29 12:00:45;;;;;;;100.43;41.30;;;4.80;84.40;;;;;;5090747;28;20461;-85
2020/12/29 12:03:13;;;;;;;80.40;35.15;;;4.90;84.20;;;;;;5068441;28;20025;-85
2020/12/29 12:05:39;;;;;;;79.00;31.75;;;4.90;84.00;;;;;;5075515;28;20036;-85
2020/12/29 12:08:04;;;;;;;47.92;22.83;;;4.90;83.80;;;;;;5057396;28;20040;-85
2020/12/29 12:10:30;;;;;;;34.15;19.00;;;4.90;83.80;;;;;;5076889;28;20496;-84
2020/12/29 12:12:56;;;;;;;30.92;17.08;;;4.90;83.80;;;;;;5090563;28;20116;-85
2020/12/29 12:15:21;;;;;;;29.17;17.25;;;5.00;83.80;;;;;;5065277;28;20031;-85
2020/12/29 12:17:47;;;;;;;25.65;14.50;;;5.00;83.70;;;;;;5073077;28;20032;-85
2020/12/29 12:20:13;;;;;;;22.15;13.80;;;5.00;83.70;;;;;;5073693;28;20031;-85
2020/12/29 12:22:38;;;;;;;25.95;15.75;;;5.00;83.60;;;;;;5056521;28;20370;-85
2020/12/29 12:25:04;;;;;;;24.80;14.70;;;5.00;83.60;;;;;;5056583;28;20104;-85
2020/12/29 12:27:30;;;;;;;25.55;14.80;;;5.10;83.80;;;;;;5073893;28;20444;-85
2020/12/29 12:29:56;;;;;;;23.38;14.00;;;5.10;83.60;;;;;;5107906;28;20020;-85
2020/12/29 12:32:21;;;;;;;22.60;14.18;;;5.10;83.50;;;;;;5074225;28;20115;-83
2020/12/29 12:34:47;;;;;;;23.48;14.55;;;5.10;83.70;;;;;;5068710;28;20066;-84
2020/12/29 12:37:13;;;;;;;25.65;14.25;;;5.10;83.60;;;;;;5077141;28;20029;-84
2020/12/29 12:39:40;;;;;;;23.35;14.40;;;5.10;83.80;;;;;;5094070;28;20192;-84
2020/12/29 12:42:10;;;;;;;21.23;14.23;;;5.20;83.90;;;;;;5076847;28;20472;-85
2020/12/29 12:44:36;;;;;;;22.40;13.93;;;5.10;83.70;;;;;;5065522;28;20043;-83
2020/12/29 12:47:04;;;;;;;21.70;14.15;;;5.20;83.90;;;;;;5111714;28;20034;-83
2020/12/29 12:49:31;;;;;;;21.50;13.00;;;5.20;84.00;;;;;;5093805;28;20034;-84
2020/12/29 12:51:56;;;;;;;23.23;13.40;;;5.20;83.80;;;;;;5093054;28;20032;-84
2020/12/29 12:54:22;;;;;;;25.33;13.32;;;5.20;83.80;;;;;;5093762;28;20030;-84
2020/12/29 12:56:53;;;;;;;19.63;12.40;;;5.20;83.90;;;;;;5077367;28;20488;-86